Time;durP1;ratioP1;P1;durP2;ratioP2;P2;SDS_P1;SDS_P2;PMS_P1;PMS_P2;Temp;Humidity;BMP_temperature;BMP_pressure;BME280_temperature;BME280_humidity;BME280_pressure;Samples;Min_cycle;Max_cycle;Signal;HPM_P1;HPM_P2
2023/07/20 00:00:07;;;;;;;5.35;2.28;;;18.00;99.90;;;;;;4995204;28;20070;-52
2023/07/20 00:02:38;;;;;;;4.82;2.25;;;18.00;99.90;;;;;;4994122;28;20125;-54
2023/07/20 00:12:47;;;;;;;4.82;2.15;;;17.90;99.90;;;;;;5002891;28;20037;-53
2023/07/20 00:15:13;;;;;;;4.53;2.22;;;17.90;99.90;;;;;;4996740;28;20497;-53
2023/07/20 00:21:27;;;;;;;4.60;2.38;;;17.90;99.90;;;;;;4993255;28;20169;-53
2023/07/20 00:23:52;;;;;;;4.55;2.33;;;17.80;99.90;;;;;;4994395;28;20062;-51
2023/07/20 00:26:18;;;;;;;3.97;2.17;;;17.80;99.90;;;;;;4993818;28;20475;-51
2023/07/20 00:28:45;;;;;;;5.13;2.25;;;17.80;99.90;;;;;;4992372;28;20030;-54
2023/07/20 00:31:10;;;;;;;4.50;2.22;;;17.80;99.90;;;;;;4992821;28;20033;-50
2023/07/20 00:33:36;;;;;;;3.47;2.22;;;17.80;99.90;;;;;;4994200;28;20080;-49
2023/07/20 00:36:02;;;;;;;2.47;1.77;;;17.70;99.90;;;;;;4994403;28;20042;-50
2023/07/20 00:38:27;;;;;;;5.43;1.98;;;17.70;99.90;;;;;;4994332;28;20038;-49
2023/07/20 00:40:53;;;;;;;4.22;2.17;;;17.70;99.90;;;;;;4993703;28;20038;-50
2023/07/20 00:43:19;;;;;;;3.92;2.10;;;17.70;99.90;;;;;;4993266;28;20026;-50
2023/07/20 00:45:45;;;;;;;7.32;2.58;;;17.70;99.90;;;;;;4993633;28;20050;-50
2023/07/20 00:48:11;;;;;;;4.88;2.28;;;17.60;99.90;;;;;;4993405;28;20471;-54
2023/07/20 00:50:37;;;;;;;5.38;2.63;;;17.60;99.90;;;;;;4994599;28;20030;-49
2023/07/20 00:53:05;;;;;;;4.20;2.20;;;17.60;99.90;;;;;;4993223;28;20036;-53
2023/07/20 00:55:32;;;;;;;5.30;2.60;;;17.60;99.90;;;;;;4993130;28;20082;-49
2023/07/20 00:57:59;;;;;;;4.93;2.40;;;17.60;99.90;;;;;;4994206;28;20518;-50
2023/07/20 01:00:25;;;;;;;6.05;2.25;;;17.60;99.90;;;;;;4994574;28;20402;-53
2023/07/20 01:02:51;;;;;;;4.10;2.10;;;17.60;99.90;;;;;;4993962;28;20033;-50
2023/07/20 01:05:17;;;;;;;3.90;2.25;;;17.60;99.90;;;;;;4994317;28;20106;-50
2023/07/20 01:07:52;;;;;;;3.33;1.95;;;17.60;99.90;;;;;;4992857;28;20238;-51
2023/07/20 01:10:38;;;;;;;5.13;2.40;;;17.60;99.90;;;;;;4992646;28;20038;-50
2023/07/20 01:13:06;;;;;;;4.60;2.25;;;17.60;99.90;;;;;;4994319;28;20088;-51
2023/07/20 01:15:34;;;;;;;4.93;2.30;;;17.60;99.90;;;;;;4993101;28;20494;-51
2023/07/20 01:18:01;;;;;;;5.43;2.00;;;17.50;99.90;;;;;;4992933;28;20100;-50
2023/07/20 01:20:30;;;;;;;6.05;2.58;;;17.60;99.90;;;;;;4992855;28;20022;-48
2023/07/20 01:23:27;;;;;;;5.18;2.20;;;17.70;99.90;;;;;;4992562;28;20034;-51
2023/07/20 01:26:09;;;;;;;5.07;2.70;;;17.70;99.90;;;;;;4994341;28;20027;-54
2023/07/20 01:29:13;;;;;;;4.80;2.63;;;17.60;99.90;;;;;;4994546;28;20085;-50
2023/07/20 01:31:41;;;;;;;5.72;2.30;;;17.60;99.90;;;;;;4993057;28;20057;-54
2023/07/20 01:34:10;;;;;;;6.07;2.53;;;17.60;99.90;;;;;;4992616;28;20038;-49
2023/07/20 01:36:38;;;;;;;5.93;2.80;;;17.60;99.90;;;;;;4993976;28;20038;-49
2023/07/20 01:39:04;;;;;;;5.85;2.72;;;17.70;99.90;;;;;;4992669;28;20487;-50
2023/07/20 01:41:30;;;;;;;4.22;2.47;;;17.50;99.90;;;;;;4994273;28;20462;-52
2023/07/20 01:44:00;;;;;;;5.25;2.85;;;17.50;99.90;;;;;;4992426;28;20030;-51
2023/07/20 01:46:25;;;;;;;6.90;3.15;;;17.40;99.90;;;;;;4993404;28;20038;-54
2023/07/20 01:48:52;;;;;;;8.93;3.10;;;17.30;99.90;;;;;;4994292;28;20080;-49
2023/07/20 01:51:18;;;;;;;7.80;2.92;;;17.20;99.90;;;;;;4976596;28;20161;-51
2023/07/20 01:53:44;;;;;;;7.25;3.08;;;17.10;99.90;;;;;;4976258;28;20121;-52
2023/07/20 01:56:12;;;;;;;5.95;2.88;;;17.00;99.90;;;;;;4994152;28;20027;-50
2023/07/20 01:58:38;;;;;;;6.95;2.70;;;16.80;99.90;;;;;;4992633;28;20037;-50
2023/07/20 02:01:04;;;;;;;7.43;3.65;;;16.80;99.90;;;;;;4992944;28;20029;-51
2023/07/20 02:03:29;;;;;;;6.32;3.00;;;16.60;99.90;;;;;;4993739;28;20031;-51
2023/07/20 02:05:56;;;;;;;6.88;2.85;;;16.60;99.90;;;;;;4992841;28;20031;-50
2023/07/20 02:08:22;;;;;;;6.45;2.92;;;16.60;99.90;;;;;;4992982;28;20065;-53
2023/07/20 02:10:49;;;;;;;7.20;3.30;;;16.60;99.90;;;;;;4994608;28;20577;-53
2023/07/20 02:13:15;;;;;;;7.53;3.30;;;16.60;99.90;;;;;;4997377;28;20038;-50
2023/07/20 02:15:42;;;;;;;6.80;3.35;;;16.50;99.90;;;;;;4996162;28;20566;-53
2023/07/20 02:18:08;;;;;;;7.57;3.25;;;16.60;99.90;;;;;;4995826;28;20066;-52
2023/07/20 02:20:34;;;;;;;6.45;3.17;;;16.50;99.90;;;;;;4997267;28;20447;-52
2023/07/20 02:23:00;;;;;;;6.70;3.30;;;16.50;99.90;;;;;;4995673;28;20022;-52
2023/07/20 02:25:26;;;;;;;8.10;3.80;;;16.50;99.90;;;;;;4995982;28;20048;-51
2023/07/20 02:27:52;;;;;;;7.72;4.00;;;16.50;99.90;;;;;;4996029;28;20031;-52
2023/07/20 02:30:18;;;;;;;5.95;3.45;;;16.50;99.90;;;;;;4997687;28;20039;-54
2023/07/20 02:32:48;;;;;;;7.80;3.78;;;16.50;99.90;;;;;;4997282;28;20422;-53
2023/07/20 02:35:15;;;;;;;7.28;3.80;;;16.50;99.90;;;;;;4996967;28;20065;-49
2023/07/20 02:37:40;;;;;;;8.45;3.55;;;16.50;99.90;;;;;;4997050;28;20038;-51
2023/07/20 02:40:07;;;;;;;9.75;4.25;;;16.50;99.90;;;;;;4995305;28;20685;-53
2023/07/20 02:42:33;;;;;;;7.30;3.78;;;16.40;99.90;;;;;;4995489;28;20042;-52
2023/07/20 02:44:59;;;;;;;7.82;3.63;;;16.40;99.90;;;;;;4996574;28;20034;-51
2023/07/20 02:47:25;;;;;;;12.88;4.60;;;16.30;99.90;;;;;;4996635;28;20478;-51
2023/07/20 02:49:50;;;;;;;7.75;3.83;;;16.30;99.90;;;;;;4995525;28;20066;-52
2023/07/20 02:52:16;;;;;;;7.90;3.80;;;16.40;99.90;;;;;;4996394;28;20085;-53
2023/07/20 02:54:42;;;;;;;6.65;3.67;;;16.40;99.90;;;;;;4995357;28;20061;-53
2023/07/20 02:57:08;;;;;;;12.95;4.30;;;16.30;99.90;;;;;;4994995;28;20053;-51
2023/07/20 02:59:33;;;;;;;10.23;4.18;;;16.30;99.90;;;;;;4995584;28;20054;-53
2023/07/20 03:01:59;;;;;;;10.25;4.53;;;16.20;99.90;;;;;;4995237;28;20089;-50
2023/07/20 03:04:27;;;;;;;8.70;4.38;;;16.20;99.90;;;;;;4994932;28;20030;-52
2023/07/20 03:06:53;;;;;;;10.25;4.50;;;16.30;99.90;;;;;;4994701;28;20030;-52
2023/07/20 03:09:19;;;;;;;8.50;4.15;;;16.30;99.90;;;;;;4994945;28;20101;-53
2023/07/20 03:11:45;;;;;;;8.38;4.68;;;16.30;99.90;;;;;;4994771;28;20074;-51
2023/07/20 03:14:11;;;;;;;8.82;4.28;;;16.30;99.90;;;;;;4994836;28;20465;-54
2023/07/20 03:16:38;;;;;;;8.38;4.40;;;16.30;99.90;;;;;;4994831;28;20034;-52
2023/07/20 03:19:04;;;;;;;7.88;4.28;;;16.30;99.90;;;;;;4994478;28;20060;-55
2023/07/20 03:21:30;;;;;;;10.10;4.00;;;16.20;99.90;;;;;;4993378;28;20466;-52
2023/07/20 03:23:56;;;;;;;9.20;4.75;;;16.20;99.90;;;;;;4995555;28;20202;-51
2023/07/20 03:26:23;;;;;;;8.15;4.43;;;16.20;99.90;;;;;;4999768;28;20098;-54
2023/07/20 03:28:48;;;;;;;9.30;4.10;;;16.20;99.90;;;;;;5001381;28;20050;-52
2023/07/20 03:31:15;;;;;;;7.10;3.80;;;16.20;99.90;;;;;;5014507;28;20026;-54
2023/07/20 03:33:41;;;;;;;8.23;4.22;;;16.20;99.90;;;;;;4995938;28;20034;-51
2023/07/20 03:36:06;;;;;;;11.32;4.50;;;16.20;99.90;;;;;;5011931;28;20025;-51
2023/07/20 03:38:32;;;;;;;8.63;4.22;;;16.10;99.90;;;;;;5006907;28;20056;-50
2023/07/20 03:40:59;;;;;;;8.15;4.38;;;16.20;99.90;;;;;;4993550;28;20026;-50
2023/07/20 03:43:26;;;;;;;9.32;4.55;;;16.20;99.90;;;;;;5005125;28;20087;-54
2023/07/20 03:45:52;;;;;;;9.13;4.60;;;16.10;99.90;;;;;;5007553;28;20030;-50
2023/07/20 03:48:20;;;;;;;8.60;4.45;;;16.10;99.90;;;;;;4994879;28;20430;-54
2023/07/20 03:50:47;;;;;;;12.73;5.68;;;16.10;99.90;;;;;;4996370;28;20034;-53
2023/07/20 03:53:14;;;;;;;10.10;5.00;;;16.10;99.90;;;;;;5001665;28;20431;-51
2023/07/20 03:55:40;;;;;;;9.70;5.10;;;16.00;99.90;;;;;;4998968;28;20030;-50
2023/07/20 03:58:07;;;;;;;10.05;5.03;;;16.00;99.90;;;;;;5005908;28;20204;-51
2023/07/20 04:00:32;;;;;;;10.90;5.68;;;16.00;99.90;;;;;;5007585;28;20065;-53
2023/07/20 04:02:59;;;;;;;12.98;6.07;;;16.00;99.90;;;;;;4997578;28;20100;-53
2023/07/20 04:05:25;;;;;;;12.13;5.93;;;16.00;99.90;;;;;;4998045;28;20212;-54
2023/07/20 04:07:51;;;;;;;13.07;5.68;;;16.00;99.90;;;;;;5003717;28;20030;-52
2023/07/20 04:10:18;;;;;;;10.02;5.10;;;16.00;99.90;;;;;;5001360;28;20030;-51
2023/07/20 04:12:44;;;;;;;12.45;6.78;;;16.00;99.90;;;;;;5002314;28;20034;-54
2023/07/20 04:15:10;;;;;;;14.63;6.90;;;16.00;99.90;;;;;;5001009;28;20118;-52
2023/07/20 04:17:36;;;;;;;13.57;7.38;;;16.00;99.90;;;;;;4994190;28;20455;-51
2023/07/20 04:20:02;;;;;;;18.40;8.75;;;15.90;99.90;;;;;;5006373;28;20062;-53
2023/07/20 04:22:28;;;;;;;17.15;8.52;;;15.90;99.90;;;;;;5001435;28;20022;-52
2023/07/20 04:24:54;;;;;;;18.75;9.45;;;15.90;99.90;;;;;;5001967;28;20037;-53
2023/07/20 04:27:19;;;;;;;19.23;10.32;;;15.90;99.90;;;;;;4992793;28;20018;-51
2023/07/20 04:29:45;;;;;;;18.90;9.82;;;15.90;99.90;;;;;;4994645;28;20109;-52
2023/07/20 04:32:12;;;;;;;19.42;10.32;;;16.00;99.90;;;;;;5008945;28;20017;-51
2023/07/20 04:34:38;;;;;;;20.02;9.68;;;16.00;99.90;;;;;;5000053;28;20018;-51
2023/07/20 04:37:04;;;;;;;17.08;9.98;;;15.90;99.90;;;;;;4999735;28;20026;-53
2023/07/20 04:39:30;;;;;;;19.60;9.95;;;16.00;99.90;;;;;;4993498;28;20026;-53
2023/07/20 04:41:57;;;;;;;18.38;10.10;;;16.00;99.90;;;;;;4993186;28;20058;-50
2023/07/20 04:44:24;;;;;;;17.35;9.90;;;16.00;99.90;;;;;;4997702;28;20038;-54
2023/07/20 04:46:50;;;;;;;17.83;9.70;;;16.00;99.90;;;;;;4999971;28;20113;-50
2023/07/20 04:49:15;;;;;;;17.77;9.48;;;16.00;99.90;;;;;;4987634;28;20058;-52
2023/07/20 04:51:43;;;;;;;16.25;9.68;;;15.90;99.90;;;;;;4995007;28;20036;-51
2023/07/20 04:54:09;;;;;;;19.48;9.48;;;16.00;99.90;;;;;;5000889;28;20033;-50
2023/07/20 04:56:37;;;;;;;17.58;9.25;;;16.00;99.90;;;;;;5001585;28;20085;-50
2023/07/20 04:59:06;;;;;;;15.77;8.38;;;16.00;99.90;;;;;;4990463;28;20030;-49
2023/07/20 05:01:31;;;;;;;18.60;10.07;;;16.00;99.90;;;;;;5000622;28;20026;-49
2023/07/20 05:03:57;;;;;;;17.50;8.70;;;16.00;99.90;;;;;;5004639;28;20033;-48
2023/07/20 05:06:23;;;;;;;18.15;9.10;;;16.00;99.90;;;;;;4997394;28;20421;-52
2023/07/20 05:08:48;;;;;;;16.48;8.88;;;16.00;99.90;;;;;;4991780;28;20414;-54
2023/07/20 05:11:14;;;;;;;15.93;8.90;;;16.00;99.90;;;;;;4999503;28;20433;-49
2023/07/20 05:13:40;;;;;;;16.58;9.15;;;16.00;99.90;;;;;;5006535;28;20038;-49
2023/07/20 05:16:06;;;;;;;17.95;9.00;;;16.00;99.90;;;;;;4992346;28;20458;-49
2023/07/20 05:18:32;;;;;;;15.43;8.85;;;16.00;99.90;;;;;;4999220;28;20030;-50
2023/07/20 05:20:59;;;;;;;15.70;8.57;;;16.10;99.90;;;;;;5002409;28;20022;-51
2023/07/20 05:23:25;;;;;;;14.55;8.35;;;16.00;99.90;;;;;;4994289;28;20030;-51
2023/07/20 05:25:56;;;;;;;14.68;7.80;;;16.00;99.90;;;;;;4996438;28;20045;-50
2023/07/20 05:28:22;;;;;;;13.73;7.68;;;16.00;99.90;;;;;;5000774;28;20346;-51
2023/07/20 05:30:47;;;;;;;12.80;7.05;;;16.00;99.90;;;;;;5000301;28;20026;-49
2023/07/20 05:33:13;;;;;;;12.18;6.72;;;16.00;99.90;;;;;;5000375;28;20038;-49
2023/07/20 05:35:39;;;;;;;11.52;6.65;;;16.10;99.90;;;;;;5000086;28;20030;-50
2023/07/20 05:38:06;;;;;;;16.52;6.78;;;16.00;99.90;;;;;;4999825;28;20026;-50
2023/07/20 05:40:32;;;;;;;13.68;6.30;;;16.00;99.90;;;;;;4999876;28;20029;-51
2023/07/20 05:42:58;;;;;;;9.68;5.63;;;16.10;99.90;;;;;;4999207;28;20096;-49
2023/07/20 05:45:24;;;;;;;9.25;4.53;;;16.10;99.90;;;;;;5004105;28;20101;-50
2023/07/20 05:47:50;;;;;;;7.68;4.20;;;16.10;99.90;;;;;;5008150;28;20425;-53
2023/07/20 05:50:15;;;;;;;7.13;4.05;;;16.10;99.90;;;;;;4992778;28;20026;-52
2023/07/20 05:52:41;;;;;;;8.27;3.92;;;16.10;99.90;;;;;;5007415;28;20349;-53
2023/07/20 05:55:07;;;;;;;7.00;4.03;;;16.10;99.90;;;;;;5003497;28;20026;-54
2023/07/20 05:57:33;;;;;;;8.73;4.20;;;16.20;99.90;;;;;;4997982;28;20084;-54
2023/07/20 05:59:59;;;;;;;7.03;3.60;;;16.20;99.90;;;;;;4994940;28;20018;-54
2023/07/20 06:02:24;;;;;;;9.30;4.35;;;16.30;99.90;;;;;;4997841;28;20033;-53
2023/07/20 06:04:50;;;;;;;7.80;3.63;;;16.30;99.90;;;;;;5004155;28;20109;-50
2023/07/20 06:07:15;;;;;;;6.85;4.10;;;16.30;99.90;;;;;;4997010;28;20173;-54
2023/07/20 06:09:41;;;;;;;6.63;3.85;;;16.30;99.90;;;;;;4995817;28;20052;-54
2023/07/20 06:12:08;;;;;;;7.60;4.10;;;16.40;99.90;;;;;;5006349;28;20141;-53
2023/07/20 06:14:34;;;;;;;6.90;3.72;;;16.50;99.90;;;;;;5013611;28;20022;-53
2023/07/20 06:16:59;;;;;;;7.57;4.10;;;16.50;99.90;;;;;;5003030;28;20527;-50
2023/07/20 06:19:25;;;;;;;8.60;4.32;;;16.70;99.90;;;;;;5000874;28;20363;-53
2023/07/20 06:21:51;;;;;;;7.72;4.10;;;16.70;99.90;;;;;;4996915;28;20028;-54
2023/07/20 06:24:19;;;;;;;11.45;5.10;;;16.80;99.90;;;;;;4999153;28;20084;-53
2023/07/20 06:26:45;;;;;;;9.85;5.35;;;16.90;99.90;;;;;;5014565;28;20026;-52
2023/07/20 06:29:10;;;;;;;10.48;4.85;;;16.90;99.90;;;;;;5006029;28;20030;-53
2023/07/20 06:31:37;;;;;;;9.50;4.82;;;16.90;99.90;;;;;;4997605;28;20045;-51
2023/07/20 06:34:03;;;;;;;10.20;5.97;;;16.90;99.90;;;;;;5008999;28;20042;-49
2023/07/20 06:36:29;;;;;;;10.32;6.60;;;16.80;99.90;;;;;;4995516;28;20433;-50
2023/07/20 06:38:55;;;;;;;11.98;6.85;;;16.90;99.90;;;;;;5001695;28;20165;-54
2023/07/20 06:41:22;;;;;;;12.77;6.75;;;17.00;99.90;;;;;;4993492;28;20041;-50
2023/07/20 06:43:48;;;;;;;11.10;6.60;;;17.00;99.90;;;;;;5001637;28;20041;-54
2023/07/20 06:46:14;;;;;;;13.90;6.95;;;17.10;99.90;;;;;;4997731;28;20028;-54
2023/07/20 06:48:39;;;;;;;9.73;5.80;;;17.10;99.90;;;;;;4998912;28;20101;-53
2023/07/20 06:51:05;;;;;;;12.93;6.25;;;17.30;99.90;;;;;;4995705;28;20475;-51
2023/07/20 06:53:31;;;;;;;10.38;6.20;;;17.30;99.90;;;;;;4995607;28;20530;-54
2023/07/20 06:55:57;;;;;;;11.98;7.07;;;17.30;99.90;;;;;;4994918;28;20125;-52
2023/07/20 06:58:23;;;;;;;14.88;8.13;;;17.30;99.90;;;;;;4993405;28;20044;-49
2023/07/20 07:00:49;;;;;;;16.77;8.93;;;17.30;99.90;;;;;;4994488;28;20034;-48
2023/07/20 07:03:14;;;;;;;16.25;9.38;;;17.30;99.90;;;;;;4991397;28;20104;-51
2023/07/20 07:05:40;;;;;;;12.38;7.15;;;17.30;99.90;;;;;;4995948;28;20410;-53
2023/07/20 07:08:06;;;;;;;12.55;5.93;;;17.20;99.90;;;;;;4995795;28;20034;-54
2023/07/20 07:10:33;;;;;;;10.35;5.53;;;17.10;99.90;;;;;;4995322;28;20100;-53
2023/07/20 07:12:59;;;;;;;11.50;6.22;;;17.00;99.90;;;;;;4994948;28;20304;-53
2023/07/20 07:15:24;;;;;;;13.43;7.68;;;17.00;99.90;;;;;;4995441;28;20038;-53
2023/07/20 07:17:50;;;;;;;13.63;7.07;;;17.00;99.90;;;;;;4995703;28;20027;-53
2023/07/20 07:20:16;;;;;;;13.70;7.50;;;16.90;99.90;;;;;;4994255;28;20031;-52
2023/07/20 07:22:43;;;;;;;14.23;6.35;;;16.80;99.90;;;;;;4991990;28;20505;-52
2023/07/20 07:25:09;;;;;;;12.38;6.68;;;16.90;99.90;;;;;;4995424;28;20049;-54
2023/07/20 07:27:35;;;;;;;13.93;6.70;;;16.80;99.90;;;;;;4995853;28;20034;-53
2023/07/20 07:30:02;;;;;;;12.60;6.85;;;16.90;99.90;;;;;;4995902;28;20061;-53
2023/07/20 07:32:28;;;;;;;15.07;7.70;;;17.10;99.90;;;;;;4995507;28;20153;-54
2023/07/20 07:34:53;;;;;;;14.13;7.40;;;17.10;99.90;;;;;;4995669;28;20026;-53
2023/07/20 07:37:19;;;;;;;14.00;7.00;;;17.10;99.90;;;;;;4995290;28;20054;-53
2023/07/20 07:39:45;;;;;;;11.65;7.05;;;17.20;99.90;;;;;;4995065;28;20030;-53
2023/07/20 07:42:12;;;;;;;14.05;8.00;;;17.20;99.90;;;;;;4994894;28;20027;-54
2023/07/20 07:44:38;;;;;;;12.13;6.53;;;17.20;99.90;;;;;;4994779;28;20445;-52
2023/07/20 07:47:03;;;;;;;13.13;6.07;;;17.10;99.90;;;;;;4993996;28;20109;-54
2023/07/20 07:49:29;;;;;;;8.82;4.40;;;17.10;99.90;;;;;;4995028;28;20034;-54
2023/07/20 07:51:55;;;;;;;6.85;4.65;;;17.10;99.90;;;;;;4994801;28;20117;-50
2023/07/20 07:54:20;;;;;;;6.65;4.70;;;17.10;99.90;;;;;;4994984;28;20521;-52
2023/07/20 07:56:46;;;;;;;6.97;4.18;;;17.10;99.90;;;;;;4993912;28;20038;-54
2023/07/20 07:59:12;;;;;;;9.23;5.60;;;17.20;99.90;;;;;;4994747;28;20038;-53
2023/07/20 08:01:37;;;;;;;8.65;5.03;;;17.30;99.90;;;;;;4994843;28;20037;-54
2023/07/20 08:04:03;;;;;;;7.35;4.45;;;17.30;99.90;;;;;;4994403;28;20026;-53
2023/07/20 08:06:29;;;;;;;7.40;3.70;;;17.30;99.90;;;;;;4995063;28;20041;-54
2023/07/20 08:08:55;;;;;;;7.13;3.78;;;17.40;99.90;;;;;;4994715;28;20038;-54
2023/07/20 08:11:20;;;;;;;6.88;3.90;;;17.50;99.90;;;;;;4994029;28;20034;-52
2023/07/20 08:13:46;;;;;;;4.28;2.78;;;17.60;99.90;;;;;;4994223;28;20026;-53
2023/07/20 08:16:12;;;;;;;3.88;1.88;;;17.80;99.90;;;;;;4994574;28;20042;-52
2023/07/20 08:18:37;;;;;;;7.93;3.20;;;18.00;99.90;;;;;;4994312;28;20126;-50
2023/07/20 08:21:03;;;;;;;8.02;4.40;;;18.30;99.90;;;;;;4994369;28;20037;-51
2023/07/20 08:23:29;;;;;;;9.45;4.63;;;18.40;99.90;;;;;;4992666;28;20111;-53
2023/07/20 08:25:55;;;;;;;10.82;5.28;;;18.60;99.90;;;;;;4976968;28;20057;-50
2023/07/20 08:28:20;;;;;;;12.52;5.65;;;18.80;99.90;;;;;;4994790;28;20034;-53
2023/07/20 08:30:47;;;;;;;9.77;5.50;;;18.90;99.90;;;;;;4994756;28;20082;-53
2023/07/20 08:33:14;;;;;;;11.27;7.38;;;19.10;99.90;;;;;;4993856;28;20049;-53
2023/07/20 08:35:40;;;;;;;11.98;6.95;;;19.10;99.90;;;;;;4994404;28;20407;-52
2023/07/20 08:38:07;;;;;;;10.77;5.70;;;19.10;99.90;;;;;;4994149;28;20037;-50
2023/07/20 08:40:34;;;;;;;7.05;3.72;;;19.10;99.90;;;;;;4994406;28;20030;-53
2023/07/20 08:43:00;;;;;;;6.85;2.75;;;19.20;99.90;;;;;;4994126;28;20045;-52
2023/07/20 08:45:30;;;;;;;4.13;1.58;;;19.40;99.90;;;;;;4994018;28;20506;-53
2023/07/20 08:47:58;;;;;;;4.25;1.67;;;19.50;99.90;;;;;;4994090;28;20109;-51
2023/07/20 08:50:26;;;;;;;5.72;2.63;;;19.60;99.90;;;;;;4994362;28;20479;-50
2023/07/20 08:52:53;;;;;;;3.90;2.40;;;19.60;99.90;;;;;;4994152;28;20409;-51
2023/07/20 08:55:20;;;;;;;5.53;2.42;;;19.70;99.90;;;;;;4994260;28;20085;-48
2023/07/20 08:57:49;;;;;;;8.48;3.17;;;19.90;99.90;;;;;;4994297;28;20038;-51
2023/07/20 09:00:17;;;;;;;;;;;19.90;99.90;;;;;;4995227;28;20501;-51
2023/07/20 09:02:45;;;;;;;3.88;1.90;;;19.90;99.90;;;;;;4994017;28;19914;-49
2023/07/20 09:05:13;;;;;;;1.92;1.02;;;19.80;99.90;;;;;;4993097;28;20034;-54
2023/07/20 09:07:40;;;;;;;1.80;0.90;;;19.60;99.90;;;;;;4993978;28;20030;-53
2023/07/20 09:10:06;;;;;;;3.90;1.50;;;19.40;99.90;;;;;;4993969;28;20780;-53
2023/07/20 09:12:35;;;;;;;2.60;1.30;;;19.30;99.90;;;;;;4993460;28;20045;-54
2023/07/20 09:15:01;;;;;;;2.53;1.33;;;19.20;99.90;;;;;;4993403;28;20030;-52
2023/07/20 09:17:26;;;;;;;1.92;1.15;;;19.00;99.90;;;;;;4993521;28;20104;-48
2023/07/20 09:19:52;;;;;;;2.47;1.30;;;19.00;99.90;;;;;;4994536;28;20034;-51
2023/07/20 09:22:18;;;;;;;2.67;1.30;;;18.90;99.90;;;;;;4997271;28;20337;-53
2023/07/20 09:24:44;;;;;;;2.75;1.40;;;18.90;99.90;;;;;;4997540;28;20121;-52
2023/07/20 09:27:10;;;;;;;3.40;1.70;;;19.00;99.90;;;;;;4997567;28;20053;-52
2023/07/20 09:29:56;;;;;;;3.65;1.30;;;19.10;99.90;;;;;;4998325;28;20057;-54
2023/07/20 09:32:22;;;;;;;4.22;1.63;;;19.30;99.90;;;;;;4996944;28;20038;-50
2023/07/20 09:34:51;;;;;;;2.28;1.40;;;19.60;99.90;;;;;;4997766;28;20030;-54
2023/07/20 09:37:23;;;;;;;2.30;0.93;;;19.80;99.90;;;;;;4998071;28;20034;-54
2023/07/20 09:39:52;;;;;;;1.23;0.70;;;19.90;99.90;;;;;;4997441;28;20060;-53
2023/07/20 09:42:18;;;;;;;2.95;1.45;;;19.90;99.90;;;;;;4997598;28;20041;-53
2023/07/20 09:44:44;;;;;;;2.90;1.02;;;19.90;99.90;;;;;;4997519;28;20505;-52
2023/07/20 09:47:10;;;;;;;2.70;0.98;;;19.90;99.90;;;;;;4997399;28;20034;-53
2023/07/20 09:49:42;;;;;;;2.20;0.90;;;20.00;99.90;;;;;;4997199;28;20057;-53
2023/07/20 09:52:12;;;;;;;2.75;0.88;;;20.10;99.90;;;;;;4997301;28;20027;-53
2023/07/20 09:54:38;;;;;;;2.15;0.90;;;20.30;99.90;;;;;;4997813;28;20030;-52
2023/07/20 09:57:10;;;;;;;1.95;0.80;;;20.40;99.90;;;;;;4997034;28;20034;-52
2023/07/20 09:59:36;;;;;;;2.20;1.00;;;20.50;99.90;;;;;;4997045;28;20038;-54
2023/07/20 10:02:11;;;;;;;1.67;1.00;;;20.90;99.90;;;;;;4997390;28;20022;-53
2023/07/20 10:04:37;;;;;;;5.55;1.33;;;21.10;99.90;;;;;;4997355;28;20491;-50
2023/07/20 10:07:10;;;;;;;4.90;1.40;;;21.10;99.80;;;;;;4997185;28;20030;-52
2023/07/20 10:09:39;;;;;;;1.75;0.93;;;21.00;99.70;;;;;;4997183;28;20038;-50
2023/07/20 10:12:06;;;;;;;3.65;1.60;;;20.90;99.70;;;;;;4995461;28;20458;-52
2023/07/20 10:14:38;;;;;;;2.30;1.20;;;20.70;99.40;;;;;;4996794;28;20066;-54
2023/07/20 10:17:07;;;;;;;2.97;1.10;;;20.40;99.90;;;;;;4996559;28;20137;-51
2023/07/20 10:19:47;;;;;;;1.35;0.80;;;20.40;99.90;;;;;;4996773;28;20062;-52
2023/07/20 10:22:26;;;;;;;1.92;0.93;;;20.40;99.90;;;;;;4996938;28;20076;-52
2023/07/20 10:24:58;;;;;;;2.45;0.68;;;20.60;99.40;;;;;;4997394;28;20066;-51
2023/07/20 10:27:25;;;;;;;1.33;0.50;;;20.60;99.20;;;;;;4996834;28;20356;-51
2023/07/20 10:29:53;;;;;;;1.67;0.70;;;20.70;98.00;;;;;;4996808;28;20030;-52
2023/07/20 10:32:19;;;;;;;1.05;0.80;;;20.80;98.20;;;;;;4995791;28;20092;-52
2023/07/20 10:34:51;;;;;;;0.73;0.70;;;20.90;98.20;;;;;;4996488;28;20046;-53
2023/07/20 10:37:49;;;;;;;1.80;0.75;;;21.00;98.80;;;;;;4995183;28;20064;-52
2023/07/20 10:40:37;;;;;;;1.38;0.70;;;20.80;98.10;;;;;;4996328;28;20169;-50
2023/07/20 10:43:06;;;;;;;2.45;1.27;;;20.70;99.90;;;;;;4995813;28;20446;-53
2023/07/20 10:45:54;;;;;;;1.85;1.08;;;20.90;98.80;;;;;;4996424;28;20180;-54
2023/07/20 10:48:24;;;;;;;1.40;0.93;;;21.10;98.20;;;;;;4996336;28;20090;-54
2023/07/20 10:51:28;;;;;;;4.25;2.22;;;21.20;97.60;;;;;;4996144;28;20034;-53
2023/07/20 10:53:58;;;;;;;2.42;1.27;;;21.10;97.90;;;;;;4973925;28;20031;-49
2023/07/20 10:56:30;;;;;;;2.47;1.10;;;21.10;98.40;;;;;;4974151;28;20041;-53
2023/07/20 10:59:00;;;;;;;2.58;1.40;;;21.30;99.00;;;;;;4985695;28;20050;-54
2023/07/20 11:01:31;;;;;;;1.90;1.00;;;21.40;97.70;;;;;;4996016;28;20061;-51
2023/07/20 11:04:00;;;;;;;2.78;1.00;;;21.50;97.70;;;;;;4996364;28;20041;-53
2023/07/20 11:06:25;;;;;;;2.80;1.00;;;21.70;96.10;;;;;;4995797;28;20041;-54
2023/07/20 11:09:07;;;;;;;2.80;0.90;;;21.70;96.90;;;;;;4994920;28;20034;-52
2023/07/20 11:11:35;;;;;;;1.23;0.77;;;21.70;95.90;;;;;;4995935;28;20023;-53
2023/07/20 11:14:03;;;;;;;1.95;0.95;;;21.50;96.50;;;;;;4995511;28;20105;-54
2023/07/20 11:16:39;;;;;;;1.80;0.90;;;21.30;96.50;;;;;;4995451;28;20073;-52
2023/07/20 11:19:14;;;;;;;1.35;0.85;;;21.10;96.80;;;;;;4995492;28;20030;-54
2023/07/20 11:21:42;;;;;;;2.03;1.10;;;21.20;96.40;;;;;;4995563;28;20095;-54
2023/07/20 11:24:09;;;;;;;4.93;1.23;;;21.20;96.90;;;;;;4995482;28;20034;-54
2023/07/20 11:26:45;;;;;;;1.52;0.73;;;21.30;96.10;;;;;;4995736;28;20042;-54
2023/07/20 11:29:12;;;;;;;4.35;2.28;;;21.50;95.40;;;;;;4995711;28;20034;-53
2023/07/20 11:31:42;;;;;;;3.20;1.65;;;21.80;94.50;;;;;;4977597;28;20471;-49
2023/07/20 11:34:13;;;;;;;3.67;1.25;;;21.90;93.70;;;;;;4995544;28;20038;-53
2023/07/20 11:36:46;;;;;;;2.65;0.82;;;22.00;93.60;;;;;;4995489;28;20042;-51
2023/07/20 11:39:14;;;;;;;3.22;1.40;;;21.90;94.40;;;;;;4994978;28;20062;-51
2023/07/20 11:41:46;;;;;;;3.28;1.90;;;22.10;94.80;;;;;;4995167;28;20309;-53
2023/07/20 11:44:15;;;;;;;3.25;1.52;;;22.10;94.40;;;;;;4993139;28;20049;-50
2023/07/20 11:46:44;;;;;;;1.00;0.73;;;22.10;94.00;;;;;;4995056;28;20390;-53
2023/07/20 11:49:10;;;;;;;4.72;1.80;;;22.10;93.50;;;;;;4995128;28;20080;-53
2023/07/20 11:51:37;;;;;;;1.95;0.75;;;22.00;93.80;;;;;;4994718;28;20031;-52
2023/07/20 11:54:04;;;;;;;0.70;0.60;;;22.00;94.80;;;;;;4994997;28;20038;-52
2023/07/20 11:56:30;;;;;;;1.77;0.80;;;21.90;95.10;;;;;;4995345;28;20088;-52
2023/07/20 11:59:00;;;;;;;1.42;0.80;;;21.80;94.90;;;;;;4994848;28;20463;-53
2023/07/20 12:01:32;;;;;;;2.35;1.10;;;21.90;93.90;;;;;;4995008;28;20030;-52
2023/07/20 12:04:03;;;;;;;2.00;1.05;;;22.00;94.50;;;;;;4994887;28;20053;-53
2023/07/20 12:06:29;;;;;;;1.30;0.68;;;22.00;94.10;;;;;;4994962;28;20061;-53
2023/07/20 12:08:57;;;;;;;3.88;1.83;;;22.00;93.20;;;;;;4993532;28;20028;-54
2023/07/20 12:11:38;;;;;;;2.72;1.38;;;22.00;94.40;;;;;;4994784;28;20045;-53
2023/07/20 12:14:08;;;;;;;1.85;0.90;;;21.90;94.60;;;;;;4994767;28;20031;-54
2023/07/20 12:16:35;;;;;;;1.73;0.75;;;21.80;93.50;;;;;;4993467;28;20068;-53
2023/07/20 12:19:13;;;;;;;3.03;0.63;;;21.80;93.60;;;;;;4994480;28;20465;-54
2023/07/20 12:21:42;;;;;;;1.08;0.70;;;21.60;94.60;;;;;;4994697;28;20023;-53
2023/07/20 12:24:11;;;;;;;1.25;0.63;;;21.50;93.70;;;;;;4994427;28;20092;-54
2023/07/20 12:26:37;;;;;;;1.15;0.70;;;21.40;94.60;;;;;;4994625;28;20041;-53
2023/07/20 12:29:03;;;;;;;0.90;0.50;;;21.30;94.50;;;;;;4994447;28;20078;-50
2023/07/20 12:31:29;;;;;;;2.53;1.15;;;21.20;95.50;;;;;;4993977;28;20041;-53
2023/07/20 12:33:56;;;;;;;2.00;0.90;;;21.20;94.20;;;;;;4992527;28;20398;-54
2023/07/20 12:36:22;;;;;;;1.15;0.70;;;21.20;94.90;;;;;;4994314;28;20505;-51
2023/07/20 12:38:48;;;;;;;1.67;0.82;;;21.10;95.10;;;;;;4994039;28;20023;-53
2023/07/20 12:41:14;;;;;;;2.97;0.77;;;21.20;95.20;;;;;;4994272;28;20058;-54
2023/07/20 12:43:40;;;;;;;1.05;0.73;;;21.20;94.30;;;;;;4993970;28;20124;-54
2023/07/20 12:46:06;;;;;;;1.58;0.60;;;21.40;94.20;;;;;;4994269;28;20121;-54
2023/07/20 12:48:32;;;;;;;1.30;0.80;;;21.50;94.50;;;;;;4994015;28;20066;-54
2023/07/20 12:50:58;;;;;;;1.85;0.90;;;21.60;94.00;;;;;;4994458;28;20033;-54
2023/07/20 12:53:24;;;;;;;2.15;0.80;;;21.70;93.30;;;;;;4994163;28;20037;-53
2023/07/20 12:55:49;;;;;;;2.58;0.52;;;21.80;93.50;;;;;;4994274;28;20498;-52